sensor_id;sensor_type;location;lat;lon;timestamp;pressure;altitude;pressure_sealevel;temperature;humidity
54920;BME280;63804;53.120;8.764;2023-04-25T00:00:15;100711.38;;;9.70;72.89
54920;BME280;63804;53.120;8.764;2023-04-25T00:02:43;100709.44;;;9.72;72.41
54920;BME280;63804;53.120;8.764;2023-04-25T00:05:10;100717.16;;;9.75;72.00
54920;BME280;63804;53.120;8.764;2023-04-25T00:07:38;100719.72;;;9.77;71.52
54920;BME280;63804;53.120;8.764;2023-04-25T00:10:06;100723.28;;;9.76;71.37
54920;BME280;63804;53.120;8.764;2023-04-25T00:12:33;100718.47;;;9.70;70.54
54920;BME280;63804;53.120;8.764;2023-04-25T00:15:00;100719.19;;;9.72;69.96
54920;BME280;63804;53.120;8.764;2023-04-25T00:17:27;100724.84;;;9.55;69.47
54920;BME280;63804;53.120;8.764;2023-04-25T00:19:54;100726.81;;;9.64;69.15
54920;BME280;63804;53.120;8.764;2023-04-25T00:22:22;100737.91;;;9.69;68.69
54920;BME280;63804;53.120;8.764;2023-04-25T00:24:49;100726.31;;;9.59;68.30
54920;BME280;63804;53.120;8.764;2023-04-25T00:27:17;100735.59;;;9.51;68.09
54920;BME280;63804;53.120;8.764;2023-04-25T00:29:43;100735.16;;;9.58;67.65
54920;BME280;63804;53.120;8.764;2023-04-25T00:32:10;100737.28;;;9.65;67.49
54920;BME280;63804;53.120;8.764;2023-04-25T00:34:37;100731.38;;;9.62;67.58
54920;BME280;63804;53.120;8.764;2023-04-25T00:37:04;100736.03;;;9.58;67.36
54920;BME280;63804;53.120;8.764;2023-04-25T00:39:32;100732.97;;;9.51;67.33
54920;BME280;63804;53.120;8.764;2023-04-25T00:42:00;100734.97;;;9.48;66.90
54920;BME280;63804;53.120;8.764;2023-04-25T00:44:27;100733.59;;;9.42;67.03
54920;BME280;63804;53.120;8.764;2023-04-25T00:46:56;100736.88;;;9.46;67.24
54920;BME280;63804;53.120;8.764;2023-04-25T00:49:23;100734.78;;;9.51;66.70
54920;BME280;63804;53.120;8.764;2023-04-25T00:51:50;100741.63;;;9.53;66.62
54920;BME280;63804;53.120;8.764;2023-04-25T00:54:17;100737.28;;;9.52;66.15
54920;BME280;63804;53.120;8.764;2023-04-25T00:56:44;100751.88;;;9.45;66.75
54920;BME280;63804;53.120;8.764;2023-04-25T00:59:12;100737.81;;;9.45;66.26
54920;BME280;63804;53.120;8.764;2023-04-25T01:01:40;100743.56;;;9.39;66.21
54920;BME280;63804;53.120;8.764;2023-04-25T01:04:08;100741.84;;;9.38;66.54
54920;BME280;63804;53.120;8.764;2023-04-25T01:06:35;100751.56;;;9.37;66.63
54920;BME280;63804;53.120;8.764;2023-04-25T01:09:03;100753.25;;;9.38;65.99
54920;BME280;63804;53.120;8.764;2023-04-25T01:11:31;100748.72;;;9.27;66.34
54920;BME280;63804;53.120;8.764;2023-04-25T01:13:58;100752.00;;;9.31;65.28
54920;BME280;63804;53.120;8.764;2023-04-25T01:16:25;100751.06;;;9.32;65.39
54920;BME280;63804;53.120;8.764;2023-04-25T01:18:54;100757.38;;;9.30;65.77
54920;BME280;63804;53.120;8.764;2023-04-25T01:21:21;100755.91;;;9.25;64.80
54920;BME280;63804;53.120;8.764;2023-04-25T01:23:48;100762.16;;;9.24;64.79
54920;BME280;63804;53.120;8.764;2023-04-25T01:26:17;100762.16;;;9.24;64.48
54920;BME280;63804;53.120;8.764;2023-04-25T01:28:44;100757.47;;;9.15;64.56
54920;BME280;63804;53.120;8.764;2023-04-25T01:31:12;100770.38;;;9.20;64.19
54920;BME280;63804;53.120;8.764;2023-04-25T01:33:40;100761.81;;;9.16;64.18
54920;BME280;63804;53.120;8.764;2023-04-25T01:36:07;100759.25;;;9.15;63.79
54920;BME280;63804;53.120;8.764;2023-04-25T01:38:35;100767.19;;;9.15;63.32
54920;BME280;63804;53.120;8.764;2023-04-25T01:41:02;100771.84;;;9.11;63.30
54920;BME280;63804;53.120;8.764;2023-04-25T01:43:29;100780.19;;;9.18;62.87
54920;BME280;63804;53.120;8.764;2023-04-25T01:45:56;100778.19;;;9.21;62.75
54920;BME280;63804;53.120;8.764;2023-04-25T01:48:24;100786.97;;;9.22;62.75
54920;BME280;63804;53.120;8.764;2023-04-25T01:50:51;100793.09;;;9.22;62.24
54920;BME280;63804;53.120;8.764;2023-04-25T01:53:18;100791.09;;;9.26;62.25
54920;BME280;63804;53.120;8.764;2023-04-25T01:55:44;100789.59;;;9.22;62.40
54920;BME280;63804;53.120;8.764;2023-04-25T01:58:11;100787.72;;;9.24;62.43
54920;BME280;63804;53.120;8.764;2023-04-25T02:00:39;100791.22;;;9.24;62.89
54920;BME280;63804;53.120;8.764;2023-04-25T02:03:07;100801.47;;;9.29;62.41
54920;BME280;63804;53.120;8.764;2023-04-25T02:05:36;100805.91;;;9.28;61.54
54920;BME280;63804;53.120;8.764;2023-04-25T02:08:05;100803.03;;;9.19;61.40
54920;BME280;63804;53.120;8.764;2023-04-25T02:10:33;100806.50;;;9.19;61.55
54920;BME280;63804;53.120;8.764;2023-04-25T02:13:00;100803.56;;;9.24;61.44
54920;BME280;63804;53.120;8.764;2023-04-25T02:15:28;100811.91;;;9.18;61.82
54920;BME280;63804;53.120;8.764;2023-04-25T02:17:54;100813.06;;;9.14;62.18
54920;BME280;63804;53.120;8.764;2023-04-25T02:20:23;100819.69;;;9.07;62.56
54920;BME280;63804;53.120;8.764;2023-04-25T02:22:50;100817.16;;;9.05;62.90
54920;BME280;63804;53.120;8.764;2023-04-25T02:25:18;100822.97;;;9.10;62.92
54920;BME280;63804;53.120;8.764;2023-04-25T02:27:47;100819.31;;;9.13;62.59
54920;BME280;63804;53.120;8.764;2023-04-25T02:30:14;100829.72;;;9.01;62.34
54920;BME280;63804;53.120;8.764;2023-04-25T02:32:42;100818.53;;;8.98;62.15
54920;BME280;63804;53.120;8.764;2023-04-25T02:35:09;100825.47;;;8.99;61.88
54920;BME280;63804;53.120;8.764;2023-04-25T02:37:37;100820.19;;;8.99;61.69
54920;BME280;63804;53.120;8.764;2023-04-25T02:40:05;100825.59;;;8.97;61.95
54920;BME280;63804;53.120;8.764;2023-04-25T02:42:32;100811.09;;;8.90;61.79
54920;BME280;63804;53.120;8.764;2023-04-25T02:44:59;100812.91;;;8.90;61.97
54920;BME280;63804;53.120;8.764;2023-04-25T02:47:26;100810.34;;;8.88;62.08
54920;BME280;63804;53.120;8.764;2023-04-25T02:49:54;100811.28;;;8.87;62.02
54920;BME280;63804;53.120;8.764;2023-04-25T02:52:20;100811.03;;;8.77;61.71
54920;BME280;63804;53.120;8.764;2023-04-25T02:54:47;100805.03;;;8.75;61.42
54920;BME280;63804;53.120;8.764;2023-04-25T02:57:14;100799.94;;;8.72;61.46
54920;BME280;63804;53.120;8.764;2023-04-25T02:59:41;100802.78;;;8.69;61.58
54920;BME280;63804;53.120;8.764;2023-04-25T03:02:09;100801.59;;;8.61;62.00
54920;BME280;63804;53.120;8.764;2023-04-25T03:04:36;100800.91;;;8.71;61.60
54920;BME280;63804;53.120;8.764;2023-04-25T03:07:03;100800.06;;;8.71;61.96
54920;BME280;63804;53.120;8.764;2023-04-25T03:09:30;100804.19;;;8.75;62.06
54920;BME280;63804;53.120;8.764;2023-04-25T03:11:57;100800.78;;;8.73;61.87
54920;BME280;63804;53.120;8.764;2023-04-25T03:14:24;100808.63;;;8.74;62.08
54920;BME280;63804;53.120;8.764;2023-04-25T03:16:51;100814.63;;;8.76;62.10
54920;BME280;63804;53.120;8.764;2023-04-25T03:19:18;100814.56;;;8.78;62.03
54920;BME280;63804;53.120;8.764;2023-04-25T03:21:47;100817.84;;;8.82;61.53
54920;BME280;63804;53.120;8.764;2023-04-25T03:24:14;100818.56;;;8.84;61.82
54920;BME280;63804;53.120;8.764;2023-04-25T03:26:41;100825.75;;;8.82;61.57
54920;BME280;63804;53.120;8.764;2023-04-25T03:29:08;100813.47;;;8.81;61.81
54920;BME280;63804;53.120;8.764;2023-04-25T03:31:35;100821.03;;;8.87;61.65
54920;BME280;63804;53.120;8.764;2023-04-25T03:34:02;100819.34;;;8.86;61.61
54920;BME280;63804;53.120;8.764;2023-04-25T03:36:29;100823.75;;;8.85;61.22
54920;BME280;63804;53.120;8.764;2023-04-25T03:38:56;100821.09;;;8.85;60.99
54920;BME280;63804;53.120;8.764;2023-04-25T03:41:23;100822.69;;;8.88;61.06
54920;BME280;63804;53.120;8.764;2023-04-25T03:43:50;100820.03;;;8.75;61.56
54920;BME280;63804;53.120;8.764;2023-04-25T03:46:17;100814.09;;;8.71;61.51
54920;BME280;63804;53.120;8.764;2023-04-25T03:48:44;100819.38;;;8.71;61.05
54920;BME280;63804;53.120;8.764;2023-04-25T03:51:11;100828.97;;;8.72;61.38
54920;BME280;63804;53.120;8.764;2023-04-25T03:53:38;100830.88;;;8.70;60.61
54920;BME280;63804;53.120;8.764;2023-04-25T03:56:06;100825.97;;;8.78;60.44
54920;BME280;63804;53.120;8.764;2023-04-25T03:58:33;100835.44;;;8.81;59.81
54920;BME280;63804;53.120;8.764;2023-04-25T04:01:00;100839.81;;;8.82;59.36
54920;BME280;63804;53.120;8.764;2023-04-25T04:03:29;100843.03;;;8.73;59.17
54920;BME280;63804;53.120;8.764;2023-04-25T04:05:57;100842.28;;;8.71;58.64
54920;BME280;63804;53.120;8.764;2023-04-25T04:08:24;100847.66;;;8.69;58.45
54920;BME280;63804;53.120;8.764;2023-04-25T04:10:51;100850.88;;;8.74;58.33
54920;BME280;63804;53.120;8.764;2023-04-25T04:13:18;100853.72;;;8.57;58.75
54920;BME280;63804;53.120;8.764;2023-04-25T04:15:45;100851.75;;;8.61;58.85
54920;BME280;63804;53.120;8.764;2023-04-25T04:18:12;100867.94;;;8.69;58.68
54920;BME280;63804;53.120;8.764;2023-04-25T04:20:39;100876.44;;;8.60;59.03
54920;BME280;63804;53.120;8.764;2023-04-25T04:23:06;100869.38;;;8.60;58.94
54920;BME280;63804;53.120;8.764;2023-04-25T04:25:33;100875.59;;;8.59;59.23
54920;BME280;63804;53.120;8.764;2023-04-25T04:28:01;100876.34;;;8.61;59.26
54920;BME280;63804;53.120;8.764;2023-04-25T04:30:28;100878.41;;;8.70;58.65
54920;BME280;63804;53.120;8.764;2023-04-25T04:32:57;100881.06;;;8.70;58.67
54920;BME280;63804;53.120;8.764;2023-04-25T04:35:24;100890.97;;;8.67;58.50
54920;BME280;63804;53.120;8.764;2023-04-25T04:37:52;100891.81;;;8.67;58.42
54920;BME280;63804;53.120;8.764;2023-04-25T04:40:18;100894.13;;;8.72;57.96
54920;BME280;63804;53.120;8.764;2023-04-25T04:42:46;100894.78;;;8.75;57.62
54920;BME280;63804;53.120;8.764;2023-04-25T04:45:13;100893.84;;;8.76;57.89
54920;BME280;63804;53.120;8.764;2023-04-25T04:47:40;100902.25;;;8.69;57.26
54920;BME280;63804;53.120;8.764;2023-04-25T04:50:08;100899.41;;;8.72;57.56
54920;BME280;63804;53.120;8.764;2023-04-25T04:52:37;100901.69;;;8.78;57.62
54920;BME280;63804;53.120;8.764;2023-04-25T04:55:04;100903.56;;;8.76;57.46
54920;BME280;63804;53.120;8.764;2023-04-25T04:57:32;100904.81;;;8.70;57.25
54920;BME280;63804;53.120;8.764;2023-04-25T04:59:59;100907.34;;;8.72;56.96
54920;BME280;63804;53.120;8.764;2023-04-25T05:02:27;100909.03;;;8.73;57.38
54920;BME280;63804;53.120;8.764;2023-04-25T05:04:56;100915.81;;;8.77;57.17
54920;BME280;63804;53.120;8.764;2023-04-25T05:07:23;100916.94;;;8.73;57.01
54920;BME280;63804;53.120;8.764;2023-04-25T05:09:50;100920.53;;;8.72;56.99
54920;BME280;63804;53.120;8.764;2023-04-25T05:12:17;100918.75;;;8.72;57.39
54920;BME280;63804;53.120;8.764;2023-04-25T05:14:44;100930.72;;;8.78;57.50
54920;BME280;63804;53.120;8.764;2023-04-25T05:17:11;100925.69;;;8.88;57.23
54920;BME280;63804;53.120;8.764;2023-04-25T05:19:38;100919.47;;;8.89;57.15
54920;BME280;63804;53.120;8.764;2023-04-25T05:22:06;100922.59;;;8.81;56.97
54920;BME280;63804;53.120;8.764;2023-04-25T05:24:33;100917.41;;;8.79;56.62
54920;BME280;63804;53.120;8.764;2023-04-25T05:26:59;100924.56;;;8.77;57.08
54920;BME280;63804;53.120;8.764;2023-04-25T05:29:26;100931.66;;;8.77;57.57
54920;BME280;63804;53.120;8.764;2023-04-25T05:31:53;100940.41;;;8.77;57.93
54920;BME280;63804;53.120;8.764;2023-04-25T05:34:21;100940.16;;;8.82;58.53
54920;BME280;63804;53.120;8.764;2023-04-25T05:36:47;100922.59;;;8.81;58.55
54920;BME280;63804;53.120;8.764;2023-04-25T05:39:16;100943.06;;;8.77;58.92
54920;BME280;63804;53.120;8.764;2023-04-25T05:41:44;100946.66;;;8.76;59.23
54920;BME280;63804;53.120;8.764;2023-04-25T05:44:11;100946.00;;;8.73;59.71
54920;BME280;63804;53.120;8.764;2023-04-25T05:46:38;100953.47;;;8.66;59.43
54920;BME280;63804;53.120;8.764;2023-04-25T05:49:04;100952.03;;;8.61;59.56
54920;BME280;63804;53.120;8.764;2023-04-25T05:51:32;100969.22;;;8.53;59.84
54920;BME280;63804;53.120;8.764;2023-04-25T05:53:59;100964.78;;;8.54;60.07
54920;BME280;63804;53.120;8.764;2023-04-25T05:56:26;100963.72;;;8.42;60.05
54920;BME280;63804;53.120;8.764;2023-04-25T05:58:53;100968.34;;;8.53;60.20
54920;BME280;63804;53.120;8.764;2023-04-25T06:01:21;100968.00;;;8.59;59.63
54920;BME280;63804;53.120;8.764;2023-04-25T06:03:48;100964.03;;;8.66;59.84
54920;BME280;63804;53.120;8.764;2023-04-25T06:06:16;100980.97;;;8.62;59.62
54920;BME280;63804;53.120;8.764;2023-04-25T06:08:43;100976.94;;;8.57;59.90
54920;BME280;63804;53.120;8.764;2023-04-25T06:11:11;100982.03;;;8.60;59.71
54920;BME280;63804;53.120;8.764;2023-04-25T06:13:38;100979.94;;;8.65;59.93
54920;BME280;63804;53.120;8.764;2023-04-25T06:16:05;100974.97;;;8.74;59.78
54920;BME280;63804;53.120;8.764;2023-04-25T06:18:32;100971.72;;;8.84;58.82
54920;BME280;63804;53.120;8.764;2023-04-25T06:20:59;100972.97;;;8.78;58.52
54920;BME280;63804;53.120;8.764;2023-04-25T06:23:26;100974.06;;;8.88;58.17
54920;BME280;63804;53.120;8.764;2023-04-25T06:25:53;100972.56;;;8.98;58.56
54920;BME280;63804;53.120;8.764;2023-04-25T06:28:20;100980.47;;;8.98;58.95
54920;BME280;63804;53.120;8.764;2023-04-25T06:30:48;100978.00;;;9.10;58.01
54920;BME280;63804;53.120;8.764;2023-04-25T06:33:15;100982.78;;;9.17;57.69
54920;BME280;63804;53.120;8.764;2023-04-25T06:35:42;100978.50;;;9.29;57.34
54920;BME280;63804;53.120;8.764;2023-04-25T06:38:09;100987.25;;;9.44;57.01
54920;BME280;63804;53.120;8.764;2023-04-25T06:40:36;100991.91;;;9.53;56.12
54920;BME280;63804;53.120;8.764;2023-04-25T06:43:03;100985.97;;;9.49;56.00
54920;BME280;63804;53.120;8.764;2023-04-25T06:45:30;100990.13;;;9.53;54.91
54920;BME280;63804;53.120;8.764;2023-04-25T06:47:57;101001.84;;;9.49;55.00
54920;BME280;63804;53.120;8.764;2023-04-25T06:50:24;100995.66;;;9.36;54.97
54920;BME280;63804;53.120;8.764;2023-04-25T06:52:51;100996.22;;;9.41;54.65
54920;BME280;63804;53.120;8.764;2023-04-25T06:55:18;101002.91;;;9.47;54.37
54920;BME280;63804;53.120;8.764;2023-04-25T06:57:45;101009.88;;;9.48;53.68
54920;BME280;63804;53.120;8.764;2023-04-25T07:00:12;101009.78;;;9.49;53.87
54920;BME280;63804;53.120;8.764;2023-04-25T07:02:39;101012.22;;;9.52;54.15
54920;BME280;63804;53.120;8.764;2023-04-25T07:05:09;101015.41;;;9.58;53.60
54920;BME280;63804;53.120;8.764;2023-04-25T07:07:36;101011.41;;;9.65;53.85
54920;BME280;63804;53.120;8.764;2023-04-25T07:10:03;101008.53;;;9.55;53.57
54920;BME280;63804;53.120;8.764;2023-04-25T07:12:30;101021.25;;;9.63;53.80
54920;BME280;63804;53.120;8.764;2023-04-25T07:14:58;101019.91;;;9.70;53.00
54920;BME280;63804;53.120;8.764;2023-04-25T07:17:25;101015.84;;;9.64;53.49
54920;BME280;63804;53.120;8.764;2023-04-25T07:19:52;101019.19;;;9.53;53.93
54920;BME280;63804;53.120;8.764;2023-04-25T07:22:19;101014.13;;;9.50;54.23
54920;BME280;63804;53.120;8.764;2023-04-25T07:24:46;101023.22;;;9.46;54.13
54920;BME280;63804;53.120;8.764;2023-04-25T07:27:15;101032.47;;;9.39;53.50
54920;BME280;63804;53.120;8.764;2023-04-25T07:29:42;101037.59;;;9.28;53.25
54920;BME280;63804;53.120;8.764;2023-04-25T07:32:09;101037.59;;;9.28;53.13
54920;BME280;63804;53.120;8.764;2023-04-25T07:34:39;101039.19;;;9.31;53.43
54920;BME280;63804;53.120;8.764;2023-04-25T07:37:06;101034.81;;;9.44;53.33
54920;BME280;63804;53.120;8.764;2023-04-25T07:39:33;101035.47;;;9.47;53.73
54920;BME280;63804;53.120;8.764;2023-04-25T07:42:00;101033.34;;;9.67;53.20
54920;BME280;63804;53.120;8.764;2023-04-25T07:44:28;101026.59;;;9.75;53.12
54920;BME280;63804;53.120;8.764;2023-04-25T07:46:57;101030.91;;;9.76;52.66
54920;BME280;63804;53.120;8.764;2023-04-25T07:49:24;101035.63;;;9.98;51.66
54920;BME280;63804;53.120;8.764;2023-04-25T07:51:51;101041.69;;;10.13;48.95
54920;BME280;63804;53.120;8.764;2023-04-25T07:54:18;101033.25;;;10.21;49.34
54920;BME280;63804;53.120;8.764;2023-04-25T07:56:45;101040.47;;;10.19;49.20
54920;BME280;63804;53.120;8.764;2023-04-25T07:59:19;101046.59;;;10.19;49.08
54920;BME280;63804;53.120;8.764;2023-04-25T08:01:46;101052.81;;;10.06;49.13
54920;BME280;63804;53.120;8.764;2023-04-25T08:04:13;101043.91;;;10.07;48.32
54920;BME280;63804;53.120;8.764;2023-04-25T08:06:40;101048.03;;;10.11;48.42
54920;BME280;63804;53.120;8.764;2023-04-25T08:09:07;101055.00;;;9.99;48.64
54920;BME280;63804;53.120;8.764;2023-04-25T08:11:36;101069.88;;;9.87;49.25
54920;BME280;63804;53.120;8.764;2023-04-25T08:14:03;101064.59;;;9.87;49.91
54920;BME280;63804;53.120;8.764;2023-04-25T08:16:30;101098.59;;;9.66;52.13
54920;BME280;63804;53.120;8.764;2023-04-25T08:18:57;101095.31;;;9.48;55.24
54920;BME280;63804;53.120;8.764;2023-04-25T08:21:24;101088.00;;;9.39;56.61
54920;BME280;63804;53.120;8.764;2023-04-25T08:23:51;101088.41;;;9.60;57.45
54920;BME280;63804;53.120;8.764;2023-04-25T08:26:18;101093.50;;;9.63;56.91
54920;BME280;63804;53.120;8.764;2023-04-25T08:28:46;101090.75;;;9.65;57.20
54920;BME280;63804;53.120;8.764;2023-04-25T08:31:13;101086.38;;;9.78;57.04
54920;BME280;63804;53.120;8.764;2023-04-25T08:33:40;101091.19;;;9.71;56.21
54920;BME280;63804;53.120;8.764;2023-04-25T08:36:07;101103.19;;;9.77;55.55
54920;BME280;63804;53.120;8.764;2023-04-25T08:38:34;101100.97;;;9.84;55.17
54920;BME280;63804;53.120;8.764;2023-04-25T08:41:01;101100.06;;;9.85;53.77
54920;BME280;63804;53.120;8.764;2023-04-25T08:43:29;101109.81;;;9.97;52.71
54920;BME280;63804;53.120;8.764;2023-04-25T08:46:00;101115.13;;;9.97;52.20
54920;BME280;63804;53.120;8.764;2023-04-25T08:48:27;101108.66;;;9.88;51.48
54920;BME280;63804;53.120;8.764;2023-04-25T08:50:58;101137.34;;;9.80;50.94
54920;BME280;63804;53.120;8.764;2023-04-25T08:53:27;101136.16;;;9.71;50.84
54920;BME280;63804;53.120;8.764;2023-04-25T08:55:55;101136.19;;;9.57;52.14
54920;BME280;63804;53.120;8.764;2023-04-25T08:58:23;101126.84;;;9.51;52.31
54920;BME280;63804;53.120;8.764;2023-04-25T09:00:51;101133.84;;;9.52;52.21
54920;BME280;63804;53.120;8.764;2023-04-25T09:03:19;101133.50;;;9.71;52.24
54920;BME280;63804;53.120;8.764;2023-04-25T09:05:47;101128.81;;;10.04;51.32
54920;BME280;63804;53.120;8.764;2023-04-25T09:08:14;101129.16;;;10.39;50.33
54920;BME280;63804;53.120;8.764;2023-04-25T09:10:41;101136.66;;;10.45;50.35
54920;BME280;63804;53.120;8.764;2023-04-25T09:13:13;101148.91;;;10.33;49.94
54920;BME280;63804;53.120;8.764;2023-04-25T09:15:55;101136.94;;;10.28;50.41
54920;BME280;63804;53.120;8.764;2023-04-25T09:18:31;101139.88;;;10.50;49.95
54920;BME280;63804;53.120;8.764;2023-04-25T09:21:11;101146.91;;;10.77;49.66
54920;BME280;63804;53.120;8.764;2023-04-25T09:23:45;101151.75;;;10.70;49.47
54920;BME280;63804;53.120;8.764;2023-04-25T09:26:19;101163.38;;;10.42;50.39
54920;BME280;63804;53.120;8.764;2023-04-25T09:28:47;101172.88;;;10.17;51.65
54920;BME280;63804;53.120;8.764;2023-04-25T09:31:25;101194.38;;;9.98;53.95
54920;BME280;63804;53.120;8.764;2023-04-25T09:33:59;101198.97;;;9.53;57.75
54920;BME280;63804;53.120;8.764;2023-04-25T09:36:30;101210.59;;;9.37;58.38
54920;BME280;63804;53.120;8.764;2023-04-25T09:38:59;101195.97;;;9.45;58.79
54920;BME280;63804;53.120;8.764;2023-04-25T09:41:26;101198.53;;;9.33;59.08
54920;BME280;63804;53.120;8.764;2023-04-25T09:43:56;101200.59;;;9.27;59.19
54920;BME280;63804;53.120;8.764;2023-04-25T09:46:23;101198.91;;;9.41;59.95
54920;BME280;63804;53.120;8.764;2023-04-25T09:48:52;101203.53;;;9.37;59.11
54920;BME280;63804;53.120;8.764;2023-04-25T09:51:25;101202.56;;;9.52;58.71
54920;BME280;63804;53.120;8.764;2023-04-25T09:53:53;101212.66;;;9.46;57.89
54920;BME280;63804;53.120;8.764;2023-04-25T09:56:21;101205.13;;;9.54;56.75
54920;BME280;63804;53.120;8.764;2023-04-25T09:58:50;101205.03;;;9.70;56.19
54920;BME280;63804;53.120;8.764;2023-04-25T10:01:21;101203.47;;;9.94;54.47
54920;BME280;63804;53.120;8.764;2023-04-25T10:03:50;101201.34;;;9.99;52.97
54920;BME280;63804;53.120;8.764;2023-04-25T10:06:19;101199.75;;;10.11;50.73
54920;BME280;63804;53.120;8.764;2023-04-25T10:08:49;101187.59;;;10.36;48.96
54920;BME280;63804;53.120;8.764;2023-04-25T10:11:17;101193.59;;;10.65;47.56
54920;BME280;63804;53.120;8.764;2023-04-25T10:13:45;101191.25;;;10.60;45.36
54920;BME280;63804;53.120;8.764;2023-04-25T10:16:12;101190.09;;;10.64;44.80
54920;BME280;63804;53.120;8.764;2023-04-25T10:18:40;101193.28;;;10.69;45.51
54920;BME280;63804;53.120;8.764;2023-04-25T10:21:07;101201.16;;;10.84;45.88
54920;BME280;63804;53.120;8.764;2023-04-25T10:23:34;101203.91;;;10.95;45.58
54920;BME280;63804;53.120;8.764;2023-04-25T10:26:03;101219.09;;;11.06;44.96
54920;BME280;63804;53.120;8.764;2023-04-25T10:28:58;101209.34;;;11.32;46.19
54920;BME280;63804;53.120;8.764;2023-04-25T10:31:26;101211.44;;;11.14;48.23
54920;BME280;63804;53.120;8.764;2023-04-25T10:33:54;101217.19;;;11.20;48.77
54920;BME280;63804;53.120;8.764;2023-04-25T10:36:22;101213.06;;;11.16;49.28
54920;BME280;63804;53.120;8.764;2023-04-25T10:38:51;101217.06;;;11.09;49.53
54920;BME280;63804;53.120;8.764;2023-04-25T10:41:19;101213.13;;;11.02;48.90
54920;BME280;63804;53.120;8.764;2023-04-25T10:43:47;101216.75;;;11.14;48.62
54920;BME280;63804;53.120;8.764;2023-04-25T10:46:17;101216.75;;;11.14;49.15
54920;BME280;63804;53.120;8.764;2023-04-25T10:53:46;101219.72;;;10.96;49.22
54920;BME280;63804;53.120;8.764;2023-04-25T10:56:19;101223.75;;;11.02;49.62
54920;BME280;63804;53.120;8.764;2023-04-25T10:58:49;101226.31;;;11.16;49.84
54920;BME280;63804;53.120;8.764;2023-04-25T11:01:20;101221.19;;;11.52;48.51
54920;BME280;63804;53.120;8.764;2023-04-25T11:03:48;101207.16;;;11.75;47.71
54920;BME280;63804;53.120;8.764;2023-04-25T11:06:23;101214.50;;;11.59;48.65
54920;BME280;63804;53.120;8.764;2023-04-25T11:08:55;101220.47;;;11.24;49.36
54920;BME280;63804;53.120;8.764;2023-04-25T11:11:22;101228.75;;;11.19;50.09
54920;BME280;63804;53.120;8.764;2023-04-25T11:13:50;101229.16;;;10.88;51.77
54920;BME280;63804;53.120;8.764;2023-04-25T11:16:17;101244.59;;;10.81;54.09
54920;BME280;63804;53.120;8.764;2023-04-25T11:19:04;101242.84;;;10.67;55.96
54920;BME280;63804;53.120;8.764;2023-04-25T11:21:31;101240.78;;;10.72;56.15
54920;BME280;63804;53.120;8.764;2023-04-25T11:23:58;101254.28;;;10.68;56.31
54920;BME280;63804;53.120;8.764;2023-04-25T11:26:26;101248.44;;;10.50;56.18
54920;BME280;63804;53.120;8.764;2023-04-25T11:28:57;101278.81;;;10.30;56.68
54920;BME280;63804;53.120;8.764;2023-04-25T11:31:25;101279.31;;;10.08;56.28
54920;BME280;63804;53.120;8.764;2023-04-25T11:33:53;101279.22;;;9.95;56.21
54920;BME280;63804;53.120;8.764;2023-04-25T11:36:23;101277.69;;;10.20;55.44
54920;BME280;63804;53.120;8.764;2023-04-25T11:38:51;101266.66;;;10.55;53.93
54920;BME280;63804;53.120;8.764;2023-04-25T11:41:19;101266.09;;;10.77;53.53
54920;BME280;63804;53.120;8.764;2023-04-25T11:43:47;101261.16;;;10.85;54.25
54920;BME280;63804;53.120;8.764;2023-04-25T11:46:15;101265.25;;;10.76;53.80
54920;BME280;63804;53.120;8.764;2023-04-25T11:48:42;101257.69;;;10.57;53.30
54920;BME280;63804;53.120;8.764;2023-04-25T11:51:10;101276.78;;;10.48;52.91
54920;BME280;63804;53.120;8.764;2023-04-25T11:53:41;101273.59;;;10.43;51.43
54920;BME280;63804;53.120;8.764;2023-04-25T11:56:11;101267.19;;;10.60;50.50
54920;BME280;63804;53.120;8.764;2023-04-25T11:58:57;101273.22;;;10.89;48.66
54920;BME280;63804;53.120;8.764;2023-04-25T12:01:33;101313.63;;;10.65;50.25
54920;BME280;63804;53.120;8.764;2023-04-25T12:04:12;101315.06;;;10.15;51.69
54920;BME280;63804;53.120;8.764;2023-04-25T12:06:42;101321.22;;;9.73;52.00
54920;BME280;63804;53.120;8.764;2023-04-25T12:09:12;101324.97;;;9.55;54.15
54920;BME280;63804;53.120;8.764;2023-04-25T12:11:53;101310.13;;;9.52;55.21
54920;BME280;63804;53.120;8.764;2023-04-25T12:14:25;101313.44;;;9.84;52.48
54920;BME280;63804;53.120;8.764;2023-04-25T12:16:58;101309.09;;;9.97;51.17
54920;BME280;63804;53.120;8.764;2023-04-25T12:19:32;101310.97;;;10.24;50.34
54920;BME280;63804;53.120;8.764;2023-04-25T12:22:01;101312.47;;;10.42;49.79
54920;BME280;63804;53.120;8.764;2023-04-25T12:24:33;101309.28;;;10.64;49.16
54920;BME280;63804;53.120;8.764;2023-04-25T12:27:05;101310.84;;;10.81;48.72
54920;BME280;63804;53.120;8.764;2023-04-25T12:29:33;101309.16;;;10.80;48.09
54920;BME280;63804;53.120;8.764;2023-04-25T12:32:15;101313.97;;;10.73;47.19
54920;BME280;63804;53.120;8.764;2023-04-25T12:34:42;101304.13;;;10.76;48.04
54920;BME280;63804;53.120;8.764;2023-04-25T12:37:09;101293.31;;;10.79;47.67
54920;BME280;63804;53.120;8.764;2023-04-25T12:39:37;101299.13;;;10.71;48.02
54920;BME280;63804;53.120;8.764;2023-04-25T12:42:04;101299.47;;;10.79;47.89
54920;BME280;63804;53.120;8.764;2023-04-25T12:44:35;101292.47;;;10.78;47.84
54920;BME280;63804;53.120;8.764;2023-04-25T12:47:03;101291.81;;;11.02;48.05
54920;BME280;63804;53.120;8.764;2023-04-25T12:49:30;101293.91;;;11.49;47.19
54920;BME280;63804;53.120;8.764;2023-04-25T12:51:58;101288.69;;;11.73;46.33
54920;BME280;63804;53.120;8.764;2023-04-25T12:54:25;101288.47;;;11.51;47.04
54920;BME280;63804;53.120;8.764;2023-04-25T12:56:52;101308.59;;;11.15;47.75
54920;BME280;63804;53.120;8.764;2023-04-25T12:59:19;101352.56;;;10.78;49.94
54920;BME280;63804;53.120;8.764;2023-04-25T13:01:48;101352.94;;;10.16;51.87
54920;BME280;63804;53.120;8.764;2023-04-25T13:04:15;101363.94;;;9.51;54.08
54920;BME280;63804;53.120;8.764;2023-04-25T13:06:43;101356.03;;;9.21;55.98